createdAt,value
2022-07-31T00:04:15.462Z,25.50
2022-07-31T00:09:54.146Z,25.50
2022-07-31T00:14:55.327Z,25.50
2022-07-31T00:20:02.607Z,25.40
2022-07-31T00:25:07.729Z,25.30
2022-07-31T00:30:14.262Z,25.20
2022-07-31T00:35:19.619Z,25.00
2022-07-31T00:40:31.951Z,25.00
2022-07-31T00:45:37.699Z,24.90
2022-07-31T00:50:43.811Z,24.80
2022-07-31T00:55:51.778Z,24.80
2022-07-31T01:01:01.983Z,24.80
2022-07-31T01:06:11.049Z,24.70
2022-07-31T01:11:32.802Z,24.60
2022-07-31T01:16:42.278Z,24.50
2022-07-31T01:22:34.698Z,24.50
2022-07-31T01:28:13.622Z,24.50
2022-07-31T01:33:38.287Z,24.50
2022-07-31T01:38:50.896Z,24.20
2022-07-31T01:44:00.386Z,24.20
2022-07-31T01:49:11.025Z,24.10
2022-07-31T01:54:24.290Z,24.00
2022-07-31T01:59:42.577Z,23.80
2022-07-31T02:05:01.118Z,23.80
2022-07-31T02:10:44.844Z,23.90
2022-07-31T02:15:50.478Z,23.60
2022-07-31T02:20:57.498Z,23.70
2022-07-31T02:26:03.527Z,23.80
2022-07-31T02:31:14.240Z,23.90
2022-07-31T02:36:22.627Z,23.90
2022-07-31T02:41:26.635Z,23.70
2022-07-31T02:46:31.113Z,23.50
2022-07-31T02:51:39.818Z,23.50
2022-07-31T02:56:47.619Z,23.40
2022-07-31T03:01:50.563Z,23.40
2022-07-31T03:11:57.628Z,23.20
2022-07-31T03:17:08.396Z,23.30
2022-07-31T03:22:15.344Z,23.30
2022-07-31T03:27:18.224Z,23.50
2022-07-31T03:32:22.467Z,23.40
2022-07-31T03:37:28.907Z,23.30
2022-07-31T03:42:32.286Z,23.30
2022-07-31T03:47:36.246Z,23.20
2022-07-31T03:52:40.056Z,23.20
2022-07-31T04:02:50.473Z,23.00
2022-07-31T04:08:12.377Z,23.00
2022-07-31T04:13:17.210Z,22.70
2022-07-31T04:18:21.723Z,22.70
2022-07-31T04:23:32.227Z,22.70
2022-07-31T04:28:54.603Z,22.80
2022-07-31T04:33:58.285Z,20.10
2022-07-31T04:39:01.655Z,22.80
2022-07-31T04:44:05.508Z,22.90
2022-07-31T04:49:25.144Z,22.90
2022-07-31T04:54:30.366Z,22.70
2022-07-31T04:59:57.877Z,22.60
2022-07-31T05:04:57.584Z,22.70
2022-07-31T05:10:06.696Z,22.60
2022-07-31T05:15:11.476Z,22.40
2022-07-31T05:20:17.915Z,22.30
2022-07-31T05:25:41.463Z,22.20
2022-07-31T05:30:44.432Z,22.10
2022-07-31T05:35:48.808Z,22.20
2022-07-31T05:40:51.622Z,22.00
2022-07-31T05:46:14.164Z,22.00
2022-07-31T05:51:18.232Z,22.10
2022-07-31T05:56:23.802Z,22.10
2022-07-31T06:01:28.475Z,21.90
2022-07-31T06:06:32.559Z,22.10
2022-07-31T06:11:37.870Z,22.10
2022-07-31T06:16:42.036Z,22.10
2022-07-31T06:21:48.626Z,22.00
2022-07-31T06:27:01.640Z,22.10
2022-07-31T06:32:07.071Z,22.00
2022-07-31T06:42:19.187Z,22.20
2022-07-31T06:52:53.562Z,22.10
2022-07-31T06:57:58.880Z,22.10
2022-07-31T07:03:03.206Z,22.20
2022-07-31T07:08:06.980Z,22.20
2022-07-31T07:13:10.325Z,22.20
2022-07-31T07:18:16.828Z,22.20
2022-07-31T07:23:24.825Z,22.20
2022-07-31T07:28:35.596Z,22.30
2022-07-31T07:33:40.604Z,22.40
2022-07-31T07:38:48.550Z,22.60
2022-07-31T07:43:52.709Z,22.60
2022-07-31T07:48:56.907Z,22.80
2022-07-31T07:54:11.526Z,23.00
2022-07-31T07:59:39.457Z,23.10
2022-07-31T08:05:01.633Z,23.10
2022-07-31T08:10:06.554Z,23.10
2022-07-31T08:15:21.318Z,23.20
2022-07-31T08:20:53.395Z,23.20
2022-07-31T08:25:56.508Z,23.20
2022-07-31T08:31:06.399Z,23.30
2022-07-31T08:36:18.819Z,23.20
2022-07-31T08:41:24.740Z,23.50
2022-07-31T08:46:32.393Z,23.60
2022-07-31T08:51:50.835Z,23.60
2022-07-31T08:57:37.733Z,23.60
2022-07-31T09:08:08.432Z,23.70
2022-07-31T09:13:24.004Z,24.00
2022-07-31T09:18:30.860Z,24.40
2022-07-31T09:23:47.460Z,24.50
2022-07-31T09:28:51.799Z,24.40
2022-07-31T09:33:54.491Z,24.90
2022-07-31T09:39:27.173Z,24.90
2022-07-31T09:44:53.567Z,24.80
2022-07-31T09:50:04.776Z,24.70
2022-07-31T09:55:16.017Z,24.70
2022-07-31T10:00:20.688Z,25.50
2022-07-31T10:05:24.456Z,25.50
2022-07-31T10:10:30.165Z,26.10
2022-07-31T10:15:52.658Z,26.40
2022-07-31T10:21:17.468Z,26.60
2022-07-31T10:26:50.737Z,26.90
2022-07-31T10:31:51.225Z,27.20
2022-07-31T10:36:59.371Z,27.50
2022-07-31T10:43:05.300Z,27.40
2022-07-31T10:48:11.870Z,27.80
2022-07-31T10:53:51.570Z,28.10
2022-07-31T11:05:23.682Z,27.80
2022-07-31T11:10:53.901Z,28.20
2022-07-31T11:16:29.576Z,28.40
2022-07-31T11:21:42.125Z,28.60
2022-07-31T11:26:56.492Z,28.60
2022-07-31T11:32:07.056Z,28.50
2022-07-31T11:37:17.920Z,28.20
2022-07-31T11:42:26.413Z,28.10
2022-07-31T11:48:12.797Z,27.90
2022-07-31T11:53:04.638Z,28.20
2022-07-31T11:58:11.359Z,28.60
2022-07-31T12:03:15.983Z,28.50
2022-07-31T12:08:20.689Z,29.20
2022-07-31T12:13:25.557Z,29.30
2022-07-31T12:18:29.551Z,29.50
2022-07-31T12:23:47.124Z,29.10
2022-07-31T12:29:05.060Z,28.90
2022-07-31T12:35:01.471Z,29.20
2022-07-31T12:40:10.932Z,29.20
2022-07-31T12:45:21.181Z,29.20
2022-07-31T12:57:57.422Z,29.60
2022-07-31T13:03:03.687Z,29.40
2022-07-31T13:08:09.305Z,29.30
2022-07-31T13:13:13.359Z,29.30
2022-07-31T13:18:16.385Z,29.50
2022-07-31T13:23:21.509Z,28.90
2022-07-31T13:28:37.953Z,28.40
2022-07-31T13:33:42.574Z,28.40
2022-07-31T13:38:50.465Z,27.70
2022-07-31T13:44:00.009Z,29.10
2022-07-31T13:49:08.715Z,28.50
2022-07-31T13:54:13.452Z,28.40
2022-07-31T13:59:17.524Z,28.50
2022-07-31T14:04:25.329Z,28.40
2022-07-31T14:09:28.304Z,28.70
2022-07-31T14:14:31.757Z,28.80
2022-07-31T14:19:41.906Z,28.70
2022-07-31T14:24:51.098Z,28.80
2022-07-31T14:29:58.077Z,28.60
2022-07-31T14:35:05.999Z,28.60
2022-07-31T14:40:11.737Z,28.70
2022-07-31T14:45:14.635Z,28.80
2022-07-31T14:50:19.843Z,28.60
2022-07-31T14:55:25.500Z,28.70
2022-07-31T15:00:28.920Z,28.70
2022-07-31T15:06:50.872Z,28.70
2022-07-31T15:10:55.587Z,28.70
2022-07-31T15:15:59.276Z,28.20
2022-07-31T15:21:02.542Z,28.40
2022-07-31T15:26:06.157Z,28.40
2022-07-31T15:31:20.029Z,28.10
2022-07-31T15:36:25.957Z,28.20
2022-07-31T15:41:29.761Z,28.00
2022-07-31T15:46:33.721Z,27.90
2022-07-31T15:51:36.970Z,27.80
2022-07-31T15:56:41.346Z,27.50
2022-07-31T16:01:44.347Z,27.40
2022-07-31T16:06:50.486Z,27.50
2022-07-31T16:12:04.927Z,27.30
2022-07-31T16:17:08.501Z,27.40
2022-07-31T16:22:13.611Z,27.30
2022-07-31T16:27:16.942Z,27.50
2022-07-31T16:32:20.437Z,27.30
2022-07-31T16:37:51.587Z,27.40
2022-07-31T16:42:50.583Z,27.30
2022-07-31T16:47:55.029Z,27.20
2022-07-31T16:52:58.065Z,26.90
2022-07-31T16:58:01.468Z,26.90
2022-07-31T17:03:04.784Z,27.10
2022-07-31T17:08:08.163Z,27.10
2022-07-31T17:13:11.916Z,27.10
2022-07-31T17:18:14.774Z,27.00
2022-07-31T17:23:18.454Z,26.80
2022-07-31T17:28:41.454Z,26.70
2022-07-31T17:33:59.678Z,26.40
2022-07-31T17:39:04.534Z,26.30
2022-07-31T17:44:07.411Z,26.30
2022-07-31T17:49:19.183Z,26.30
2022-07-31T17:54:23.177Z,26.10
2022-07-31T17:59:26.936Z,26.10
2022-07-31T18:04:31.878Z,26.10
2022-07-31T18:09:36.761Z,25.70
2022-07-31T18:14:43.050Z,25.80
2022-07-31T18:19:48.014Z,26.00
2022-07-31T18:24:53.666Z,25.70
2022-07-31T18:30:04.594Z,25.60
2022-07-31T18:35:11.747Z,25.40
2022-07-31T18:40:14.946Z,25.40
2022-07-31T18:45:19.434Z,25.50
2022-07-31T18:51:02.345Z,25.50
2022-07-31T18:55:47.308Z,25.60
2022-07-31T19:00:54.720Z,25.50
2022-07-31T19:06:00.381Z,25.60
2022-07-31T19:11:04.597Z,25.20
2022-07-31T19:16:08.789Z,25.30
2022-07-31T19:21:23.665Z,25.30
2022-07-31T19:26:36.174Z,25.30
2022-07-31T19:31:41.342Z,25.30
2022-07-31T19:36:46.351Z,25.10
2022-07-31T19:42:10.849Z,24.90
2022-07-31T19:47:14.306Z,24.90
2022-07-31T19:52:17.568Z,24.70
2022-07-31T19:57:20.298Z,24.80
2022-07-31T20:02:23.253Z,24.90
2022-07-31T20:07:32.223Z,24.90
2022-07-31T20:12:36.655Z,24.60
2022-07-31T20:17:39.446Z,24.50
2022-07-31T20:22:42.881Z,24.30
2022-07-31T20:27:45.594Z,24.40
2022-07-31T20:32:49.092Z,26.60
2022-07-31T20:37:55.642Z,24.40
2022-07-31T20:42:58.703Z,24.20
2022-07-31T20:48:01.789Z,24.00
2022-07-31T20:53:06.094Z,23.70
2022-07-31T20:58:11.016Z,24.00
2022-07-31T21:03:14.460Z,23.80
2022-07-31T21:08:17.594Z,23.80
2022-07-31T21:13:20.314Z,23.80
2022-07-31T21:23:27.128Z,24.10
2022-07-31T21:28:30.247Z,24.10
2022-07-31T21:33:33.774Z,24.00
2022-07-31T21:38:37.396Z,24.30
2022-07-31T21:43:58.973Z,24.30
2022-07-31T21:49:03.714Z,24.00
2022-07-31T21:54:06.837Z,23.80
2022-07-31T21:59:09.633Z,24.30
2022-07-31T22:04:12.758Z,24.00
2022-07-31T22:09:16.857Z,24.10
2022-07-31T22:14:22.140Z,24.00
2022-07-31T22:19:25.440Z,23.80
2022-07-31T22:24:28.700Z,23.90
2022-07-31T22:29:33.459Z,23.70
2022-07-31T22:34:37.769Z,23.70
2022-07-31T22:39:41.255Z,24.00
2022-07-31T22:44:44.323Z,23.80
2022-07-31T22:49:49.233Z,24.00
2022-07-31T22:54:52.225Z,23.50
2022-07-31T22:59:55.176Z,23.50
2022-07-31T23:04:58.157Z,24.60
2022-07-31T23:10:01.277Z,22.50
2022-07-31T23:15:05.301Z,23.50
2022-07-31T23:20:09.787Z,23.60
2022-07-31T23:25:14.845Z,23.50
2022-07-31T23:30:17.734Z,23.60
2022-07-31T23:35:20.595Z,23.70
2022-07-31T23:40:23.495Z,23.20
2022-07-31T23:45:26.584Z,23.10
2022-07-31T23:50:31.034Z,22.90
2022-07-31T23:55:38.491Z,22.70
